Bancroft, IA (50517)

9:03 PM CDT on September 03, 2015 (GMT -0500)
APRSWXNET | | Change Station
CLOSE
Current Station
Personal Weather Station
Location: Fenton, IA
Elevation: 1233 ft
Nearby Weather Stations

Elev 1233 ft 43.16 °N, 94.36 °W | Updated 21 minutes ago

Partly Cloudy
Partly Cloudy
77 °F
Feels Like 78 °F
N
0
Wind Variable Wind from SSE
Gusts 0.0 mph

Today
High -- | Low -- °F
--% Chance of Precip.
Yesterday
High -- | Low -- °F
Precip. -- in
6:42 AM 7:48 PM
Waning Gibbous, 64% visible
Pressure 29.86 in
Visibility 10.0 miles
Clouds Few 12000 ft
Heat Index 78 °F
Dew Point 74 °F
Humidity 90%
Rainfall in
Snow Depth Not available.
UV 0 out of 12
Pollen 10.10 out of 12
Air Quality Not available.
Flu Activity Not available.
METAR KAXA 040155Z AUTO 15008KT 10SM FEW120 26/23 A2986 RMK AO2
Pressure 29.86 in
Visibility 10.0 miles
Clouds Few 12000 ft
Heat Index 78 °F
Dew Point 74 °F
Humidity 90%
Rainfall in
Snow Depth Not available.
UV 0 out of 12
Pollen 10.10 out of 12
Air Quality Not available.
Flu Activity Not available.
METAR KAXA 040155Z AUTO 15008KT 10SM FEW120 26/23 A2986 RMK AO2

10-Day Weather Forecast

×

Almanac

Astronomy

Sep. 03, 2015 Rise Set
Actual Time
Civil Twilight
Nautical Twilight
Astronomical Twilight
Moon
Length of Visible Light
Length of Day
Tomorrow will be .
, % of the Moon is Illuminated

Today's Extremes

State Highs State Lows

Community

WunderPhotos

Upload Photos

1,852,095 photos uploaded!

WunderBlogs® & News

Nearby

Air Quality

  Air Quality AQ Index Pollutant
Not available.

Snow Depth

Station Depth Elevation

Earthquake Activity

City Distance Mag. Time & Date
Minimum magnitude displayed is 2.5.

Coastal Water Temperatures

Place Temperature

Stations

Nearby Weather Stations

Station Location Temp. Windchill Dew Point Humidity Wind Precip. Elev Updated Type